Time;durP1;ratioP1;P1;durP2;ratioP2;P2;SDS_P1;SDS_P2;PMS_P1;PMS_P2;Temp;Humidity;BMP_temperature;BMP_pressure;BME280_temperature;BME280_humidity;BME280_pressure;Samples;Min_cycle;Max_cycle;Signal;HPM_P1;HPM_P2
2022/04/14 00:01:25;;;;;;;6.68;4.55;;;18.50;80.80;;;;;;5127704;27;46599;-78
2022/04/14 00:03:52;;;;;;;6.72;4.88;;;18.50;80.70;;;;;;5126976;27;45187;-78
2022/04/14 00:06:20;;;;;;;6.03;4.63;;;18.50;80.80;;;;;;5113967;27;45189;-78
2022/04/14 00:08:47;;;;;;;6.75;5.22;;;18.50;81.00;;;;;;5122692;27;45286;-78
2022/04/14 00:11:14;;;;;;;7.18;5.30;;;18.50;81.00;;;;;;5128624;27;47927;-78
2022/04/14 00:13:41;;;;;;;5.90;4.78;;;18.50;80.90;;;;;;5128070;27;45209;-78
2022/04/14 00:16:08;;;;;;;6.28;4.78;;;18.50;80.80;;;;;;5126513;27;45318;-78
2022/04/14 00:18:35;;;;;;;6.65;4.75;;;18.50;81.00;;;;;;5124662;27;45140;-78
2022/04/14 00:21:01;;;;;;;6.57;5.13;;;18.50;81.00;;;;;;5127915;27;45309;-78
2022/04/14 00:23:30;;;;;;;6.78;5.05;;;18.50;80.90;;;;;;5122523;27;45279;-78
2022/04/14 00:25:57;;;;;;;6.00;4.40;;;18.50;80.90;;;;;;5125367;27;45447;-78
2022/04/14 00:28:23;;;;;;;5.65;3.95;;;18.50;80.90;;;;;;5118453;27;45176;-78
2022/04/14 00:30:50;;;;;;;6.28;4.47;;;18.50;80.70;;;;;;5126507;27;45445;-78
2022/04/14 00:33:17;;;;;;;5.28;3.85;;;18.50;80.70;;;;;;5120735;27;45128;-77
2022/04/14 00:35:44;;;;;;;5.20;4.10;;;18.50;80.40;;;;;;5121177;27;45371;-78
2022/04/14 00:38:11;;;;;;;5.75;4.20;;;18.60;80.70;;;;;;5126144;27;45326;-78
2022/04/14 00:40:39;;;;;;;6.57;4.75;;;18.50;80.50;;;;;;5120237;27;47912;-78
2022/04/14 00:43:07;;;;;;;4.53;4.00;;;18.50;80.70;;;;;;5125178;27;45294;-77
2022/04/14 00:45:34;;;;;;;7.13;5.30;;;18.50;80.80;;;;;;5118116;27;45314;-77
2022/04/14 00:48:01;;;;;;;5.63;4.32;;;18.50;80.90;;;;;;5121279;27;45781;-78
2022/04/14 00:50:27;;;;;;;7.57;4.82;;;18.50;80.80;;;;;;5125285;27;47136;-78
2022/04/14 00:52:55;;;;;;;5.55;4.15;;;18.50;80.80;;;;;;5113793;27;45240;-77
2022/04/14 00:55:22;;;;;;;6.40;4.43;;;18.50;80.50;;;;;;5118374;27;45493;-78
2022/04/14 00:57:50;;;;;;;6.40;4.53;;;18.50;80.50;;;;;;5119659;27;45503;-78
2022/04/14 01:00:17;;;;;;;6.78;4.72;;;18.50;80.50;;;;;;5117844;27;46598;-78
2022/04/14 01:02:43;;;;;;;5.57;4.20;;;18.50;80.50;;;;;;5118690;27;45431;-78
2022/04/14 01:05:13;;;;;;;6.43;4.75;;;18.50;80.50;;;;;;5121781;27;45287;-78
2022/04/14 01:07:40;;;;;;;5.28;4.28;;;18.50;80.40;;;;;;5124707;27;45245;-77
2022/04/14 01:10:07;;;;;;;6.43;4.75;;;18.50;80.50;;;;;;5118217;27;45300;-78
2022/04/14 01:12:36;;;;;;;6.88;4.90;;;18.50;80.50;;;;;;5118913;27;45278;-78
2022/04/14 01:15:11;;;;;;;7.00;5.18;;;18.50;80.50;;;;;;5121168;27;45250;-78
2022/04/14 01:17:38;;;;;;;8.00;5.13;;;18.50;80.60;;;;;;5127031;27;45329;-78
2022/04/14 01:20:05;;;;;;;7.00;5.22;;;18.50;80.70;;;;;;5116893;27;45425;-78
2022/04/14 01:22:35;;;;;;;6.72;4.82;;;18.50;80.70;;;;;;5120818;27;45286;-77
2022/04/14 01:25:04;;;;;;;7.13;4.72;;;18.50;81.00;;;;;;5124007;27;46006;-78
2022/04/14 01:27:31;;;;;;;6.13;4.30;;;18.40;80.80;;;;;;5123727;27;45249;-78
2022/04/14 01:29:58;;;;;;;6.03;4.50;;;18.50;81.00;;;;;;5122028;27;46151;-78
2022/04/14 01:32:25;;;;;;;6.93;5.15;;;18.50;81.00;;;;;;5117943;27;45188;-78
2022/04/14 01:34:52;;;;;;;6.68;4.63;;;18.50;81.00;;;;;;5122899;27;45171;-77
2022/04/14 01:37:19;;;;;;;6.82;5.03;;;18.50;80.80;;;;;;5120345;27;45217;-78
2022/04/14 01:39:46;;;;;;;7.65;5.03;;;18.50;80.60;;;;;;5120532;27;46641;-78
2022/04/14 01:42:14;;;;;;;6.22;4.45;;;18.50;80.60;;;;;;5123764;27;46117;-77
2022/04/14 01:44:41;;;;;;;7.68;5.30;;;18.50;80.60;;;;;;5119348;27;45230;-78
2022/04/14 01:47:08;;;;;;;5.75;4.55;;;18.50;80.70;;;;;;5121197;27;45414;-77
2022/04/14 01:49:35;;;;;;;7.97;5.93;;;18.50;80.60;;;;;;5116451;27;46221;-78
2022/04/14 01:52:02;;;;;;;7.57;5.45;;;18.50;80.90;;;;;;5123648;27;45341;-78
2022/04/14 01:54:29;;;;;;;7.55;5.38;;;18.50;81.00;;;;;;5122879;27;45178;-77
2022/04/14 01:56:56;;;;;;;7.32;5.45;;;18.50;80.90;;;;;;5122880;27;45279;-78
2022/04/14 01:59:24;;;;;;;8.57;6.18;;;18.50;81.00;;;;;;5127151;27;47844;-78
2022/04/14 02:01:51;;;;;;;7.60;5.32;;;18.50;81.00;;;;;;5119649;27;45293;-78
2022/04/14 02:04:17;;;;;;;8.70;5.60;;;18.50;81.00;;;;;;5122637;27;45242;-78
2022/04/14 02:06:44;;;;;;;7.30;5.53;;;18.50;81.00;;;;;;5123269;27;45275;-78
2022/04/14 02:09:12;;;;;;;8.30;5.88;;;18.50;80.70;;;;;;5125389;27;46321;-78
2022/04/14 02:11:39;;;;;;;8.45;5.95;;;18.50;80.80;;;;;;5119478;27;45274;-78
2022/04/14 02:14:05;;;;;;;6.53;5.35;;;18.50;80.70;;;;;;5123529;27;45348;-78
2022/04/14 02:16:33;;;;;;;7.63;5.63;;;18.50;80.30;;;;;;5122520;27;45489;-78
2022/04/14 02:19:00;;;;;;;7.32;5.50;;;18.50;80.50;;;;;;5124512;27;47423;-78
2022/04/14 02:21:27;;;;;;;8.40;6.45;;;18.50;80.40;;;;;;5124616;27;45239;-78
2022/04/14 02:23:54;;;;;;;9.25;6.68;;;18.50;80.70;;;;;;5116451;27;45453;-78
2022/04/14 02:26:20;;;;;;;9.25;6.45;;;18.50;80.80;;;;;;5119425;27;45602;-78
2022/04/14 02:28:48;;;;;;;7.18;5.88;;;18.50;80.70;;;;;;5120714;27;45421;-78
2022/04/14 02:31:14;;;;;;;8.48;6.20;;;18.50;80.70;;;;;;5127415;27;46388;-77
2022/04/14 02:33:42;;;;;;;6.90;5.53;;;18.50;80.60;;;;;;5125471;27;45294;-77
2022/04/14 02:36:09;;;;;;;8.57;6.10;;;18.50;80.70;;;;;;5121516;27;45109;-78
2022/04/14 02:38:36;;;;;;;8.00;5.85;;;18.50;80.50;;;;;;5118416;27;45317;-77
2022/04/14 02:41:03;;;;;;;7.38;5.30;;;18.50;80.40;;;;;;5120605;27;45632;-78
2022/04/14 02:43:30;;;;;;;7.63;5.38;;;18.50;80.20;;;;;;5124608;27;45286;-77
2022/04/14 02:45:58;;;;;;;6.90;5.35;;;18.50;80.10;;;;;;5120824;27;45347;-77
2022/04/14 02:48:25;;;;;;;8.75;6.13;;;18.50;80.40;;;;;;5115958;27;46389;-78
2022/04/14 02:50:53;;;;;;;8.95;6.22;;;18.50;80.30;;;;;;5120800;27;45378;-77
2022/04/14 02:53:20;;;;;;;9.43;6.63;;;18.60;80.50;;;;;;5123711;27;45296;-78
2022/04/14 02:55:47;;;;;;;8.45;6.32;;;18.60;80.30;;;;;;5121205;27;45461;-78
2022/04/14 02:58:14;;;;;;;8.48;6.53;;;18.50;80.30;;;;;;5123247;27;46661;-78
2022/04/14 03:00:41;;;;;;;7.90;5.95;;;18.50;80.50;;;;;;5119200;27;45275;-77
2022/04/14 03:03:07;;;;;;;9.45;6.65;;;18.50;80.50;;;;;;5119308;27;45297;-78
2022/04/14 03:05:34;;;;;;;9.48;6.03;;;18.50;80.50;;;;;;5118896;27;45408;-78
2022/04/14 03:08:02;;;;;;;10.48;6.60;;;18.50;80.60;;;;;;5119748;27;46125;-78
2022/04/14 03:10:29;;;;;;;9.13;6.70;;;18.50;80.70;;;;;;5118839;27;45257;-78
2022/04/14 03:12:57;;;;;;;8.57;6.20;;;18.50;80.30;;;;;;5122824;27;45455;-78
2022/04/14 03:15:24;;;;;;;7.82;5.82;;;18.50;79.20;;;;;;5123036;27;45832;-78
2022/04/14 03:17:51;;;;;;;7.40;5.35;;;18.50;78.20;;;;;;5120471;27;45274;-78
2022/04/14 03:20:18;;;;;;;9.35;6.13;;;18.50;78.80;;;;;;5119702;27;45187;-78
2022/04/14 03:22:45;;;;;;;6.22;4.97;;;18.60;79.30;;;;;;5120036;27;45203;-78
2022/04/14 03:25:14;;;;;;;6.95;5.60;;;18.50;79.60;;;;;;5117293;27;45269;-78
2022/04/14 03:27:41;;;;;;;7.78;5.57;;;18.60;79.60;;;;;;5117487;27;45376;-77
2022/04/14 03:30:10;;;;;;;7.65;6.07;;;18.50;79.60;;;;;;5124646;27;45519;-77
2022/04/14 03:32:41;;;;;;;7.45;5.40;;;18.50;79.80;;;;;;5119407;27;45407;-78
2022/04/14 03:35:08;;;;;;;7.45;5.43;;;18.50;79.80;;;;;;5120620;27;45484;-78
2022/04/14 03:37:35;;;;;;;8.52;5.57;;;18.50;79.90;;;;;;5119945;27;46632;-78
2022/04/14 03:40:02;;;;;;;8.23;6.20;;;18.50;79.90;;;;;;5118881;27;45199;-77
2022/04/14 03:42:30;;;;;;;8.48;6.55;;;18.50;79.60;;;;;;5115905;27;45312;-78
2022/04/14 03:44:57;;;;;;;8.23;5.70;;;18.50;77.90;;;;;;5124490;27;45420;-78
2022/04/14 03:47:24;;;;;;;6.88;5.40;;;18.50;78.30;;;;;;5121428;27;46520;-78
2022/04/14 03:49:51;;;;;;;6.05;4.65;;;18.50;78.80;;;;;;5116362;27;45143;-78
2022/04/14 03:52:18;;;;;;;6.70;4.90;;;18.50;79.00;;;;;;5121777;27;45416;-78
2022/04/14 03:54:45;;;;;;;7.22;5.70;;;18.50;79.10;;;;;;5121685;27;45306;-79
2022/04/14 03:57:12;;;;;;;7.88;5.18;;;18.60;78.90;;;;;;5119158;27;46559;-78
2022/04/14 03:59:41;;;;;;;6.15;4.80;;;18.60;78.20;;;;;;5112637;27;45247;-77
2022/04/14 04:02:07;;;;;;;7.00;4.40;;;18.60;77.00;;;;;;5118843;27;45375;-78
2022/04/14 04:04:34;;;;;;;5.47;4.18;;;18.60;77.00;;;;;;5117076;27;45317;-78
2022/04/14 04:07:01;;;;;;;5.72;4.07;;;18.60;77.80;;;;;;5120229;27;45219;-78
2022/04/14 04:09:28;;;;;;;4.93;4.00;;;18.60;78.30;;;;;;5125013;27;45200;-78
2022/04/14 04:11:55;;;;;;;5.65;4.03;;;18.60;78.50;;;;;;5119481;27;45188;-78
2022/04/14 04:14:22;;;;;;;4.40;3.33;;;18.60;78.90;;;;;;5114507;27;45503;-77
2022/04/14 04:16:50;;;;;;;4.68;3.78;;;18.60;79.00;;;;;;5118643;27;46246;-78
2022/04/14 04:19:17;;;;;;;4.68;3.80;;;18.60;79.00;;;;;;5116043;27;45357;-77
2022/04/14 04:21:44;;;;;;;4.70;3.60;;;18.60;79.00;;;;;;5119820;27;45402;-78
2022/04/14 04:24:11;;;;;;;4.10;3.40;;;18.60;78.50;;;;;;5122577;27;45590;-78
2022/04/14 04:26:38;;;;;;;5.50;3.22;;;18.60;78.60;;;;;;5117423;27;45297;-78
2022/04/14 04:29:05;;;;;;;4.10;3.40;;;18.60;78.70;;;;;;5124862;27;45263;-78
2022/04/14 04:31:31;;;;;;;6.78;3.92;;;18.60;78.70;;;;;;5117783;27;45225;-78
2022/04/14 04:34:00;;;;;;;5.45;4.13;;;18.60;78.80;;;;;;5116328;27;45249;-78
2022/04/14 04:36:26;;;;;;;5.47;3.63;;;18.60;78.90;;;;;;5125548;27;46367;-78
2022/04/14 04:38:53;;;;;;;7.00;4.95;;;18.60;78.80;;;;;;5113929;27;45203;-78
2022/04/14 04:41:20;;;;;;;7.13;4.90;;;18.60;79.20;;;;;;5114498;27;45329;-78
2022/04/14 04:43:47;;;;;;;7.45;5.15;;;18.60;79.30;;;;;;5120157;27;45187;-78
2022/04/14 04:46:15;;;;;;;6.90;4.68;;;18.60;79.30;;;;;;5119658;27;46657;-77
2022/04/14 04:48:42;;;;;;;7.50;5.03;;;18.60;79.20;;;;;;5117532;27;45442;-78
2022/04/14 04:51:10;;;;;;;6.15;4.75;;;18.60;79.20;;;;;;5120285;27;45392;-78
2022/04/14 04:53:37;;;;;;;9.23;5.68;;;18.60;79.50;;;;;;5120519;27;46836;-77
2022/04/14 04:56:04;;;;;;;7.00;4.97;;;18.60;79.50;;;;;;5124078;27;47415;-78
2022/04/14 04:58:31;;;;;;;10.02;6.07;;;18.60;79.60;;;;;;5122294;27;45330;-78
2022/04/14 05:00:58;;;;;;;7.63;5.30;;;18.60;79.70;;;;;;5122466;27;46415;-78
2022/04/14 05:03:25;;;;;;;7.68;4.85;;;18.60;79.70;;;;;;5124655;27;45407;-78
2022/04/14 05:05:51;;;;;;;6.40;5.07;;;18.60;79.70;;;;;;5119870;27;45370;-78
2022/04/14 05:08:20;;;;;;;9.73;5.80;;;18.60;79.70;;;;;;5120434;27;45350;-78
2022/04/14 05:10:46;;;;;;;7.10;4.50;;;18.60;79.70;;;;;;5125569;27;45295;-78
2022/04/14 05:13:15;;;;;;;5.68;4.13;;;18.60;79.10;;;;;;5125055;27;45496;-77
2022/04/14 05:15:42;;;;;;;6.68;4.78;;;18.60;78.70;;;;;;5119180;27;46176;-78
2022/04/14 05:18:09;;;;;;;6.13;4.15;;;18.60;79.20;;;;;;5117713;27;45208;-78
2022/04/14 05:20:36;;;;;;;6.40;4.55;;;18.60;79.10;;;;;;5122036;27;45158;-77
2022/04/14 05:23:03;;;;;;;6.43;4.72;;;18.60;79.20;;;;;;5121721;27;45115;-79
2022/04/14 05:25:32;;;;;;;7.00;4.97;;;18.50;79.40;;;;;;5122140;27;47321;-78
2022/04/14 05:27:58;;;;;;;7.28;5.20;;;18.50;79.40;;;;;;5119511;27;45216;-79
2022/04/14 05:30:25;;;;;;;7.22;4.78;;;18.50;79.00;;;;;;5122733;27;45253;-79
2022/04/14 05:32:52;;;;;;;9.25;5.85;;;18.50;79.00;;;;;;5122195;27;45245;-79
2022/04/14 05:35:21;;;;;;;9.80;6.00;;;18.60;78.40;;;;;;5129233;27;47417;-79
2022/04/14 05:37:48;;;;;;;8.48;6.18;;;18.60;78.20;;;;;;5127815;27;45308;-79
2022/04/14 05:40:14;;;;;;;10.88;7.22;;;18.60;77.70;;;;;;5120290;27;45710;-79
2022/04/14 05:42:46;;;;;;;8.50;6.22;;;18.60;77.00;;;;;;5117270;27;45321;-79
2022/04/14 05:45:13;;;;;;;8.48;5.78;;;18.60;77.00;;;;;;5129490;27;45369;-79
2022/04/14 05:47:40;;;;;;;9.02;6.07;;;18.60;77.00;;;;;;5128617;27;45277;-79
2022/04/14 05:50:07;;;;;;;8.07;5.78;;;18.60;77.00;;;;;;5125046;27;45187;-79
2022/04/14 05:52:34;;;;;;;7.43;5.25;;;18.50;76.90;;;;;;5128211;27;45593;-78
2022/04/14 05:55:02;;;;;;;8.73;6.10;;;18.60;77.00;;;;;;5125337;27;46201;-79
2022/04/14 05:57:29;;;;;;;9.05;5.80;;;18.50;77.00;;;;;;5128158;27;45332;-79
2022/04/14 05:59:57;;;;;;;7.57;5.18;;;18.50;77.30;;;;;;5129799;27;45439;-79
2022/04/14 06:02:24;;;;;;;7.85;5.30;;;18.50;77.60;;;;;;5121505;27;45464;-79
2022/04/14 06:04:51;;;;;;;7.72;5.55;;;18.50;77.50;;;;;;5120988;27;47576;-78
2022/04/14 06:07:18;;;;;;;7.25;4.90;;;18.50;77.60;;;;;;5120510;27;45246;-79
2022/04/14 06:09:44;;;;;;;8.07;5.43;;;18.50;77.70;;;;;;5124002;27;45204;-78
2022/04/14 06:12:11;;;;;;;7.45;5.13;;;18.50;77.70;;;;;;5124350;27;45378;-78
2022/04/14 06:14:38;;;;;;;8.02;5.68;;;18.50;77.90;;;;;;5126964;27;47324;-78
2022/04/14 06:17:07;;;;;;;6.65;5.10;;;18.50;78.10;;;;;;5122611;27;46592;-79
2022/04/14 06:19:33;;;;;;;6.55;5.10;;;18.50;77.90;;;;;;5126429;27;45308;-79
2022/04/14 06:22:00;;;;;;;7.55;5.20;;;18.50;78.20;;;;;;5129580;27;45380;-79
2022/04/14 06:24:27;;;;;;;7.80;5.63;;;18.50;78.30;;;;;;5125132;27;46590;-78
2022/04/14 06:26:54;;;;;;;7.88;5.63;;;18.50;78.50;;;;;;5121560;27;45335;-79
2022/04/14 06:29:20;;;;;;;6.68;4.85;;;18.50;78.80;;;;;;5120819;27;45589;-79
2022/04/14 06:31:47;;;;;;;8.55;5.35;;;18.50;78.60;;;;;;5122227;27;45732;-79
2022/04/14 06:34:16;;;;;;;6.18;4.70;;;18.30;78.70;;;;;;5115834;27;45517;-79
2022/04/14 06:36:42;;;;;;;6.93;5.10;;;18.50;79.40;;;;;;5125717;27;45187;-80
2022/04/14 06:39:12;;;;;;;8.20;5.57;;;18.50;80.00;;;;;;5129186;27;45477;-80
2022/04/14 06:41:40;;;;;;;8.73;5.97;;;18.50;80.50;;;;;;5126999;27;45287;-80
2022/04/14 06:44:07;;;;;;;11.07;7.60;;;18.50;80.90;;;;;;5130468;27;47303;-79
2022/04/14 06:46:34;;;;;;;11.27;8.00;;;18.60;80.30;;;;;;5131935;27;45658;-79
2022/04/14 06:49:01;;;;;;;11.30;7.43;;;18.50;79.70;;;;;;5130148;27;45609;-79
2022/04/14 06:51:29;;;;;;;10.73;7.35;;;18.50;78.90;;;;;;5123413;27;45329;-79
2022/04/14 06:53:55;;;;;;;11.18;7.82;;;18.50;77.60;;;;;;5127574;27;47422;-79
2022/04/14 06:56:22;;;;;;;11.52;7.60;;;18.50;78.50;;;;;;5125038;27;45269;-79
2022/04/14 06:58:49;;;;;;;10.02;7.07;;;18.50;77.60;;;;;;5118077;27;45199;-78
2022/04/14 07:01:15;;;;;;;9.68;7.28;;;18.50;77.80;;;;;;5123987;27;45301;-79
2022/04/14 07:03:42;;;;;;;9.60;6.35;;;18.40;78.00;;;;;;5124943;27;45226;-78
2022/04/14 07:06:09;;;;;;;8.02;5.90;;;18.50;78.00;;;;;;5121424;27;45299;-79
2022/04/14 07:08:38;;;;;;;9.30;5.45;;;18.50;78.60;;;;;;5118303;27;45350;-78
2022/04/14 07:11:05;;;;;;;7.82;5.65;;;18.60;78.40;;;;;;5118459;27;45485;-78
2022/04/14 07:13:32;;;;;;;6.90;4.90;;;18.50;78.80;;;;;;5121385;27;47443;-79
2022/04/14 07:16:00;;;;;;;7.57;5.15;;;18.50;78.70;;;;;;5125366;27;45301;-79
2022/04/14 07:18:27;;;;;;;6.47;4.60;;;18.60;79.10;;;;;;5122363;27;45217;-79
2022/04/14 07:20:54;;;;;;;5.20;3.88;;;18.50;80.10;;;;;;5124527;27;45348;-78
2022/04/14 07:23:21;;;;;;;4.82;4.10;;;18.60;79.00;;;;;;5122691;27;47076;-78
2022/04/14 07:25:49;;;;;;;8.40;4.72;;;18.60;79.80;;;;;;5127148;27;45609;-78
2022/04/14 07:28:16;;;;;;;6.93;4.50;;;18.50;80.00;;;;;;5124269;27;45241;-79
2022/04/14 07:30:43;;;;;;;6.93;4.63;;;18.60;80.10;;;;;;5127807;27;46056;-78
2022/04/14 07:33:10;;;;;;;7.15;4.78;;;18.60;79.80;;;;;;5122083;27;46124;-77
2022/04/14 07:35:37;;;;;;;6.32;4.10;;;18.60;79.80;;;;;;5127155;27;45400;-77
2022/04/14 07:38:05;;;;;;;39.97;6.13;;;18.70;79.40;;;;;;5127214;27;45307;-76
2022/04/14 07:40:32;;;;;;;23.63;4.35;;;18.80;80.20;;;;;;5125031;27;45188;-77
2022/04/14 07:43:01;;;;;;;13.27;4.43;;;18.90;79.40;;;;;;5123410;27;45975;-79
2022/04/14 07:45:28;;;;;;;11.85;4.07;;;18.90;79.30;;;;;;5129079;27;45830;-80
2022/04/14 07:47:55;;;;;;;11.43;3.50;;;19.00;81.20;;;;;;5125406;27;45271;-79
2022/04/14 07:50:22;;;;;;;14.77;4.07;;;19.00;81.40;;;;;;5121545;27;45340;-79
2022/04/14 07:52:51;;;;;;;9.82;3.40;;;19.00;80.40;;;;;;5125276;27;45440;-78
2022/04/14 07:55:22;;;;;;;9.02;3.55;;;18.90;79.70;;;;;;5123787;27;45209;-78
2022/04/14 07:57:50;;;;;;;11.57;3.10;;;18.80;80.10;;;;;;5127197;27;45226;-77
2022/04/14 08:00:19;;;;;;;5.50;2.90;;;18.80;80.20;;;;;;5115724;27;45214;-77
2022/04/14 08:02:50;;;;;;;15.30;3.92;;;18.70;80.20;;;;;;5116129;27;46218;-78
2022/04/14 08:05:17;;;;;;;11.95;3.40;;;18.70;79.90;;;;;;5120039;27;45885;-78
2022/04/14 08:07:44;;;;;;;5.70;3.05;;;18.70;79.70;;;;;;5122939;27;45347;-78
2022/04/14 08:10:11;;;;;;;9.20;3.25;;;18.60;79.50;;;;;;5124693;27;45213;-78
2022/04/14 08:12:38;;;;;;;8.27;3.72;;;18.70;79.30;;;;;;5117811;27;46591;-78
2022/04/14 08:15:05;;;;;;;3.97;2.63;;;18.70;79.30;;;;;;5128501;27;45199;-78
2022/04/14 08:17:34;;;;;;;6.68;3.10;;;18.70;79.20;;;;;;5112884;27;45213;-78
2022/04/14 08:20:01;;;;;;;4.50;2.72;;;18.70;79.30;;;;;;5120722;27;45267;-78
2022/04/14 08:22:28;;;;;;;3.95;2.40;;;18.80;79.40;;;;;;5128890;27;46577;-78
2022/04/14 08:24:55;;;;;;;7.40;2.78;;;18.80;79.20;;;;;;5115988;27;45573;-77
2022/04/14 08:27:22;;;;;;;3.83;2.40;;;18.80;79.40;;;;;;5119829;27;45245;-78
2022/04/14 08:29:49;;;;;;;5.95;2.33;;;18.80;79.10;;;;;;5114147;27;45354;-76
2022/04/14 08:32:16;;;;;;;5.05;2.10;;;18.80;78.60;;;;;;5123428;27;46657;-77
2022/04/14 08:34:45;;;;;;;4.30;2.38;;;18.70;78.70;;;;;;5116550;27;45192;-77
2022/04/14 08:37:12;;;;;;;3.90;2.28;;;18.70;78.90;;;;;;5119995;27;45671;-76
2022/04/14 08:39:39;;;;;;;5.43;2.17;;;18.70;79.00;;;;;;5120006;27;45349;-77
2022/04/14 08:42:12;;;;;;;5.97;2.25;;;18.70;78.90;;;;;;5119505;27;47929;-77
2022/04/14 08:44:46;;;;;;;4.03;2.38;;;18.70;79.10;;;;;;5122423;27;45276;-77
2022/04/14 08:47:15;;;;;;;5.15;2.28;;;18.70;78.90;;;;;;5115805;27;45404;-77
2022/04/14 08:49:44;;;;;;;4.70;2.58;;;18.70;78.70;;;;;;5120718;27;45242;-77
2022/04/14 08:52:14;;;;;;;6.32;2.85;;;18.70;78.80;;;;;;5125060;27;45789;-77
2022/04/14 08:54:44;;;;;;;4.78;2.72;;;18.70;78.90;;;;;;5128700;27;45325;-77
2022/04/14 08:57:13;;;;;;;3.55;2.67;;;18.70;78.70;;;;;;5125134;27;45198;-77
2022/04/14 08:59:44;;;;;;;5.18;3.50;;;18.70;78.90;;;;;;5120068;27;45189;-77
2022/04/14 09:02:15;;;;;;;5.50;3.35;;;18.70;79.30;;;;;;5118311;27;45437;-77
2022/04/14 09:04:44;;;;;;;6.07;3.47;;;18.70;79.40;;;;;;5119444;27;46046;-77
2022/04/14 09:07:12;;;;;;;5.05;3.78;;;18.70;79.20;;;;;;5122676;27;45292;-77
2022/04/14 09:09:39;;;;;;;5.75;3.58;;;18.70;79.00;;;;;;5124967;27;45194;-77
2022/04/14 09:12:07;;;;;;;5.90;3.85;;;18.70;79.00;;;;;;5125388;27;46243;-78
2022/04/14 09:14:35;;;;;;;7.55;3.75;;;18.70;79.00;;;;;;5111025;27;45243;-78
2022/04/14 09:17:02;;;;;;;5.22;3.40;;;18.70;79.00;;;;;;5121643;27;45274;-78
2022/04/14 09:19:31;;;;;;;6.03;3.97;;;18.70;79.00;;;;;;5123571;27;45233;-77
2022/04/14 09:21:59;;;;;;;7.43;3.78;;;18.70;79.30;;;;;;5122867;27;47712;-78
2022/04/14 09:24:40;;;;;;;5.85;3.70;;;18.70;79.10;;;;;;5120351;27;45267;-78
2022/04/14 09:27:07;;;;;;;6.47;3.88;;;18.70;79.20;;;;;;5119422;27;45203;-78
2022/04/14 09:29:34;;;;;;;6.30;4.20;;;18.80;79.10;;;;;;5115343;27;45275;-78
2022/04/14 09:32:02;;;;;;;9.38;5.22;;;18.70;79.00;;;;;;5114103;27;45349;-78
2022/04/14 09:34:50;;;;;;;6.53;3.90;;;18.80;79.10;;;;;;5117292;27;45368;-78
2022/04/14 09:37:18;;;;;;;8.27;4.55;;;18.80;79.30;;;;;;5120924;27;45384;-77
2022/04/14 09:39:56;;;;;;;9.75;5.53;;;18.80;79.30;;;;;;5129775;27;45502;-77
2022/04/14 09:42:24;;;;;;;10.90;6.30;;;18.70;79.20;;;;;;5121322;27;45549;-77
2022/04/14 09:44:51;;;;;;;53.33;23.08;;;18.70;79.20;;;;;;5129735;27;45212;-77
2022/04/14 09:47:40;;;;;;;48.90;23.63;;;18.70;79.20;;;;;;5121143;27;45399;-77
2022/04/14 09:50:22;;;;;;;54.95;27.23;;;18.70;79.70;;;;;;5116061;27;45625;-77
2022/04/14 09:53:02;;;;;;;48.78;24.60;;;18.70;80.00;;;;;;5122450;27;46076;-77
2022/04/14 09:55:29;;;;;;;47.33;26.13;;;18.70;80.30;;;;;;5126366;27;45292;-77
2022/04/14 09:58:14;;;;;;;43.67;23.75;;;18.70;80.40;;;;;;5129169;27;45187;-77
2022/04/14 10:00:45;;;;;;;35.95;20.58;;;18.70;80.30;;;;;;5123671;27;46233;-77
2022/04/14 10:03:15;;;;;;;41.47;23.10;;;18.70;80.10;;;;;;5128423;27;47121;-78
2022/04/14 10:05:42;;;;;;;41.65;24.67;;;18.70;80.40;;;;;;5125226;27;45446;-78
2022/04/14 10:08:13;;;;;;;35.92;20.48;;;18.70;80.70;;;;;;5120725;27;45300;-78
2022/04/14 10:10:42;;;;;;;34.00;18.63;;;18.70;80.60;;;;;;5115534;27;45401;-78
2022/04/14 10:13:10;;;;;;;32.95;18.25;;;18.70;80.10;;;;;;5123401;27;47824;-78
2022/04/14 10:15:40;;;;;;;29.13;17.48;;;18.70;79.60;;;;;;5123002;27;45548;-78
2022/04/14 10:18:09;;;;;;;30.35;16.95;;;18.70;79.80;;;;;;5130881;27;45498;-78
2022/04/14 10:20:37;;;;;;;29.05;17.05;;;18.70;79.70;;;;;;5125118;27;45655;-78
2022/04/14 10:23:05;;;;;;;34.47;16.90;;;18.70;79.50;;;;;;5120396;27;47427;-78
2022/04/14 10:25:36;;;;;;;25.73;15.40;;;18.70;79.20;;;;;;5120813;27;45236;-78
2022/04/14 10:28:05;;;;;;;25.92;15.27;;;18.70;79.30;;;;;;5124080;27;45283;-78
2022/04/14 10:30:31;;;;;;;26.73;14.48;;;18.70;79.20;;;;;;5125843;27;45422;-78
2022/04/14 10:32:58;;;;;;;27.63;15.30;;;18.70;79.10;;;;;;5119606;27;45467;-78
2022/04/14 10:35:27;;;;;;;28.00;14.80;;;18.70;79.20;;;;;;5115130;27;45330;-78
2022/04/14 10:38:05;;;;;;;24.25;14.45;;;18.70;78.80;;;;;;5120874;27;45271;-78
2022/04/14 10:40:34;;;;;;;22.83;13.57;;;18.70;78.90;;;;;;5121910;27;45362;-77
2022/04/14 10:43:02;;;;;;;30.80;12.82;;;18.80;78.70;;;;;;5121609;27;45346;-77
2022/04/14 10:45:29;;;;;;;23.33;12.60;;;18.80;78.90;;;;;;5127084;27;45852;-77
2022/04/14 10:48:00;;;;;;;20.30;11.50;;;18.80;78.80;;;;;;5117694;27;45211;-78
2022/04/14 10:50:29;;;;;;;19.85;11.77;;;18.70;78.50;;;;;;5125555;27;45491;-78
2022/04/14 10:53:05;;;;;;;20.00;11.45;;;18.70;78.60;;;;;;5120250;27;47938;-77
2022/04/14 10:55:38;;;;;;;18.23;10.52;;;18.70;78.70;;;;;;5127631;27;45199;-78
2022/04/14 10:58:05;;;;;;;18.83;10.63;;;18.70;78.90;;;;;;5126460;27;45191;-77
2022/04/14 11:00:39;;;;;;;18.55;11.02;;;18.70;78.90;;;;;;5125455;27;45477;-77
2022/04/14 11:03:08;;;;;;;18.17;10.50;;;18.70;79.00;;;;;;5126170;27;46541;-78
2022/04/14 11:05:39;;;;;;;20.02;10.13;;;18.80;78.60;;;;;;5124777;27;45294;-77
2022/04/14 11:08:27;;;;;;;17.23;9.55;;;18.80;78.50;;;;;;5118514;27;45360;-78
2022/04/14 11:11:11;;;;;;;16.70;9.32;;;18.80;78.30;;;;;;5121008;27;45249;-78
2022/04/14 11:14:07;;;;;;;16.35;9.50;;;18.90;78.40;;;;;;5117579;27;46091;-78
2022/04/14 11:16:41;;;;;;;17.10;10.02;;;18.80;78.70;;;;;;5128088;27;45783;-78
2022/04/14 11:19:29;;;;;;;14.85;8.82;;;18.90;78.90;;;;;;5125871;27;45716;-78
2022/04/14 11:22:04;;;;;;;14.73;8.15;;;18.80;78.50;;;;;;5123434;27;45533;-78
2022/04/14 11:24:49;;;;;;;12.73;8.20;;;18.80;77.20;;;;;;5127981;27;46176;-78
2022/04/14 11:27:18;;;;;;;13.93;8.20;;;18.80;77.20;;;;;;5127087;27;45169;-78
2022/04/14 11:29:46;;;;;;;14.63;8.15;;;18.80;77.70;;;;;;5125218;27;45225;-78
2022/04/14 11:32:15;;;;;;;14.15;8.13;;;18.80;78.00;;;;;;5121610;27;45404;-78
2022/04/14 11:34:43;;;;;;;12.23;7.90;;;18.80;78.00;;;;;;5124315;27;46364;-78
2022/04/14 11:37:38;;;;;;;11.82;7.35;;;18.80;77.80;;;;;;5123234;27;45686;-77
2022/04/14 11:40:15;;;;;;;14.48;7.95;;;18.90;78.60;;;;;;5124698;27;45216;-78
2022/04/14 11:42:47;;;;;;;13.73;7.85;;;18.80;79.10;;;;;;5126682;27;45368;-77
2022/04/14 11:45:22;;;;;;;12.43;7.75;;;18.90;79.10;;;;;;5126164;27;45368;-77
2022/04/14 11:47:49;;;;;;;12.35;7.85;;;18.80;79.10;;;;;;5124283;27;45651;-77
2022/04/14 11:50:23;;;;;;;14.68;8.23;;;18.80;79.40;;;;;;5120824;27;45230;-77
2022/04/14 11:52:50;;;;;;;12.23;7.47;;;18.80;79.40;;;;;;5127739;27;45298;-77
2022/04/14 11:55:35;;;;;;;10.80;6.80;;;18.70;79.30;;;;;;5126781;27;47072;-78
2022/04/14 11:58:06;;;;;;;12.65;6.93;;;18.80;79.20;;;;;;5128899;27;45306;-77
2022/04/14 12:00:42;;;;;;;9.73;6.25;;;18.70;78.90;;;;;;5125429;27;45268;-77
2022/04/14 12:03:09;;;;;;;10.07;6.40;;;18.70;78.80;;;;;;5123937;27;45433;-78
2022/04/14 12:05:36;;;;;;;10.35;6.43;;;18.70;78.90;;;;;;5117206;27;48302;-78
2022/04/14 12:08:07;;;;;;;11.15;6.78;;;18.70;78.40;;;;;;5127664;27;45813;-78
2022/04/14 12:10:34;;;;;;;9.60;5.88;;;18.80;78.30;;;;;;5121980;27;46067;-77
2022/04/14 12:13:08;;;;;;;10.13;5.88;;;18.80;78.10;;;;;;5127223;27;45205;-77
2022/04/14 12:15:35;;;;;;;8.35;5.55;;;18.80;77.90;;;;;;5119242;27;45989;-77
2022/04/14 12:18:09;;;;;;;8.05;5.63;;;18.90;77.30;;;;;;5124087;27;45649;-78
2022/04/14 12:20:36;;;;;;;8.57;5.10;;;18.90;77.30;;;;;;5123742;27;45270;-78
2022/04/14 12:23:03;;;;;;;8.82;5.65;;;18.90;77.30;;;;;;5119440;27;45351;-77
2022/04/14 12:25:30;;;;;;;8.05;5.28;;;18.90;77.30;;;;;;5118537;27;46206;-77
2022/04/14 12:27:57;;;;;;;9.15;5.43;;;18.90;77.30;;;;;;5124600;27;45389;-77
2022/04/14 12:30:26;;;;;;;7.75;4.65;;;18.90;77.30;;;;;;5119836;27;45771;-78
2022/04/14 12:33:01;;;;;;;7.20;4.60;;;18.90;77.30;;;;;;5117714;27;45196;-77
2022/04/14 12:35:31;;;;;;;7.60;5.00;;;18.90;77.30;;;;;;5123005;27;46449;-78
2022/04/14 12:38:12;;;;;;;7.15;4.63;;;18.90;77.30;;;;;;5126400;27;45440;-77
2022/04/14 12:40:53;;;;;;;7.75;4.90;;;18.90;77.30;;;;;;5123087;27;45355;-78
2022/04/14 12:43:24;;;;;;;6.68;4.97;;;18.90;77.30;;;;;;5122124;27;45257;-76
2022/04/14 12:45:52;;;;;;;8.85;4.80;;;18.90;77.30;;;;;;5124865;27;45309;-77
2022/04/14 12:48:28;;;;;;;6.28;4.05;;;18.90;77.00;;;;;;5114757;27;45372;-77
2022/04/14 12:50:56;;;;;;;6.57;3.75;;;18.90;76.90;;;;;;5118982;27;45167;-77